createdAt,value
2019-05-18T00:00:58.030Z,13.59
2019-05-18T00:06:03.269Z,13.61
2019-05-18T00:11:08.611Z,13.73
2019-05-18T00:16:13.888Z,13.76
2019-05-18T00:21:19.183Z,13.77
2019-05-18T00:26:24.501Z,13.65
2019-05-18T00:31:29.801Z,13.86
2019-05-18T00:36:35.371Z,13.85
2019-05-18T00:41:40.571Z,13.80
2019-05-18T00:46:45.966Z,13.84
2019-05-18T00:51:51.385Z,13.99
2019-05-18T00:56:56.631Z,13.90
2019-05-18T01:02:01.954Z,13.89
2019-05-18T01:07:07.099Z,13.91
2019-05-18T01:12:12.572Z,13.91
2019-05-18T01:17:18.011Z,13.87
2019-05-18T01:22:23.352Z,13.91
2019-05-18T01:27:28.824Z,13.91
2019-05-18T01:32:34.180Z,14.04
2019-05-18T01:37:39.842Z,14.13
2019-05-18T01:42:45.512Z,14.22
2019-05-18T01:47:50.972Z,14.26
2019-05-18T01:52:56.734Z,14.15
2019-05-18T01:58:01.960Z,14.12
2019-05-18T02:03:07.185Z,14.12
2019-05-18T02:08:12.631Z,14.26
2019-05-18T02:13:17.979Z,14.26
2019-05-18T02:18:29.073Z,14.18
2019-05-18T02:23:30.135Z,14.14
2019-05-18T02:28:35.483Z,14.20
2019-05-18T02:33:40.951Z,14.29
2019-05-18T02:38:46.343Z,14.29
2019-05-18T02:43:51.682Z,14.18
2019-05-18T02:48:57.016Z,14.17
2019-05-18T02:54:02.475Z,14.26
2019-05-18T02:59:07.933Z,14.22
2019-05-18T03:04:14.153Z,14.30
2019-05-18T03:09:19.577Z,14.26
2019-05-18T03:14:24.886Z,14.37
2019-05-18T03:19:30.112Z,14.33
2019-05-18T03:24:35.759Z,14.37
2019-05-18T03:29:41.014Z,14.35
2019-05-18T03:34:46.236Z,14.47
2019-05-18T03:39:51.334Z,14.42
2019-05-18T03:44:56.807Z,14.56
2019-05-18T03:50:02.354Z,14.57
2019-05-18T03:55:07.824Z,14.51
2019-05-18T04:00:13.110Z,14.39
2019-05-18T04:05:18.531Z,14.36
2019-05-18T04:10:28.102Z,14.34
2019-05-18T04:15:33.185Z,14.33
2019-05-18T04:20:38.684Z,14.27
2019-05-18T04:25:44.275Z,14.19
2019-05-18T04:30:49.674Z,14.34
2019-05-18T04:35:55.131Z,14.33
2019-05-18T04:41:00.492Z,14.41
2019-05-18T04:46:05.640Z,14.46
2019-05-18T04:51:11.118Z,14.37
2019-05-18T04:56:16.469Z,14.55
2019-05-18T05:01:21.871Z,14.78
2019-05-18T05:06:26.950Z,14.90
2019-05-18T05:11:32.091Z,14.86
2019-05-18T05:16:37.235Z,14.80
2019-05-18T05:21:42.468Z,14.82
2019-05-18T05:26:47.959Z,14.86
2019-05-18T05:31:53.311Z,14.66
2019-05-18T05:36:58.476Z,14.69
2019-05-18T05:42:03.710Z,14.79
2019-05-18T05:47:08.908Z,14.94
2019-05-18T05:52:14.218Z,15.08
2019-05-18T05:57:19.586Z,14.91
2019-05-18T06:02:24.835Z,15.03
2019-05-18T06:07:30.216Z,15.20
2019-05-18T06:12:35.691Z,15.42
2019-05-18T06:17:41.021Z,15.32
2019-05-18T06:22:46.457Z,15.44
2019-05-18T06:27:51.598Z,15.47
2019-05-18T06:32:56.825Z,15.47
2019-05-18T06:38:01.903Z,15.58
2019-05-18T06:43:07.078Z,15.61
2019-05-18T06:48:12.326Z,15.72
2019-05-18T06:53:17.488Z,15.91
2019-05-18T06:58:23.808Z,15.82
2019-05-18T07:03:29.376Z,15.88
2019-05-18T07:08:36.278Z,15.88
2019-05-18T07:13:41.715Z,16.17
2019-05-18T07:18:46.875Z,16.34
2019-05-18T07:23:52.028Z,16.46
2019-05-18T07:28:57.380Z,16.74
2019-05-18T07:34:02.628Z,16.98
2019-05-18T07:39:08.610Z,17.09
2019-05-18T07:44:13.816Z,16.81
2019-05-18T07:49:18.878Z,16.46
2019-05-18T07:54:24.394Z,16.24
2019-05-18T07:59:29.838Z,16.14
2019-05-18T08:04:35.112Z,16.07
2019-05-18T08:09:40.552Z,16.22
2019-05-18T08:14:45.715Z,16.31
2019-05-18T08:19:52.957Z,16.02
2019-05-18T08:24:58.284Z,16.09
2019-05-18T08:30:04.129Z,15.91
2019-05-18T08:35:09.917Z,15.77
2019-05-18T08:40:15.607Z,15.58
2019-05-18T08:45:21.045Z,15.64
2019-05-18T08:50:26.146Z,15.42
2019-05-18T08:55:31.310Z,15.47
2019-05-18T09:00:37.012Z,15.59
2019-05-18T09:05:42.784Z,15.67
2019-05-18T09:10:48.172Z,15.48
2019-05-18T09:15:53.561Z,15.45
2019-05-18T09:20:58.948Z,15.17
2019-05-18T09:26:04.547Z,15.02
2019-05-18T09:31:10.378Z,14.80
2019-05-18T09:36:15.568Z,14.64
2019-05-18T09:41:20.904Z,14.57
2019-05-18T09:46:26.266Z,14.33
2019-05-18T09:51:31.468Z,14.16
2019-05-18T09:56:36.683Z,14.09
2019-05-18T10:01:41.940Z,14.11
2019-05-18T10:06:47.041Z,13.79
2019-05-18T10:11:52.248Z,13.76
2019-05-18T10:16:57.556Z,13.85
2019-05-18T10:22:02.917Z,13.87
2019-05-18T10:27:08.125Z,13.91
2019-05-18T10:32:13.348Z,13.83
2019-05-18T10:37:18.695Z,13.73
2019-05-18T10:42:24.074Z,13.70
2019-05-18T10:47:29.454Z,13.70
2019-05-18T10:52:34.760Z,13.60
2019-05-18T10:57:40.068Z,13.72
2019-05-18T11:02:45.421Z,13.82
2019-05-18T11:07:50.736Z,13.95
2019-05-18T11:12:56.183Z,13.89
2019-05-18T11:18:01.398Z,14.08
2019-05-18T11:23:06.905Z,14.36
2019-05-18T11:28:12.203Z,14.53
2019-05-18T11:33:17.379Z,14.62
2019-05-18T11:38:23.129Z,15.03
2019-05-18T11:43:28.251Z,15.70
2019-05-18T11:48:33.595Z,16.14
2019-05-18T11:53:38.922Z,16.54
2019-05-18T11:58:44.067Z,17.03
2019-05-18T12:03:49.186Z,17.43
2019-05-18T12:08:54.371Z,17.33
2019-05-18T12:13:59.491Z,17.43
2019-05-18T12:19:04.772Z,17.71
2019-05-18T12:24:15.609Z,17.77
2019-05-18T12:29:17.650Z,18.19
2019-05-18T12:34:23.814Z,18.23
2019-05-18T12:39:29.201Z,18.68
2019-05-18T12:44:34.598Z,18.70
2019-05-18T12:49:39.769Z,18.56
2019-05-18T12:54:46.950Z,17.69
2019-05-18T12:59:51.822Z,17.10
2019-05-18T13:04:56.931Z,16.52
2019-05-18T13:10:02.079Z,16.36
2019-05-18T13:15:09.581Z,16.20
2019-05-18T13:20:17.124Z,16.03
2019-05-18T13:25:22.776Z,16.06
2019-05-18T13:30:28.093Z,16.16
2019-05-18T13:35:33.397Z,16.22
2019-05-18T13:40:38.741Z,16.33
2019-05-18T13:45:44.070Z,16.03
2019-05-18T13:50:49.416Z,15.97
2019-05-18T13:55:54.780Z,16.11
2019-05-18T14:01:00.159Z,16.13
2019-05-18T14:06:05.722Z,15.94
2019-05-18T14:11:10.964Z,16.14
2019-05-18T14:16:16.187Z,16.28
2019-05-18T14:21:23.156Z,16.46
2019-05-18T14:26:32.174Z,16.69
2019-05-18T14:31:37.530Z,16.84
2019-05-18T14:36:43.091Z,16.98
2019-05-18T14:41:49.771Z,17.33
2019-05-18T14:46:55.004Z,19.18
2019-05-18T14:52:00.399Z,19.78
2019-05-18T14:57:06.002Z,21.62
2019-05-18T15:02:11.619Z,22.83
2019-05-18T15:07:17.092Z,23.78
2019-05-18T15:12:22.388Z,24.72
2019-05-18T15:17:27.749Z,25.12
2019-05-18T15:22:33.832Z,24.26
2019-05-18T15:27:39.340Z,24.13
2019-05-18T15:32:44.668Z,22.01
2019-05-18T15:37:49.878Z,24.40
2019-05-18T15:42:55.406Z,25.44
2019-05-18T15:48:00.880Z,23.84
2019-05-18T15:53:06.282Z,24.73
2019-05-18T15:58:11.900Z,26.13
2019-05-18T16:03:17.211Z,26.76
2019-05-18T16:08:22.470Z,27.55
2019-05-18T16:13:27.956Z,25.70
2019-05-18T16:18:35.507Z,23.64
2019-05-18T16:23:40.899Z,22.81
2019-05-18T16:28:46.341Z,22.47
2019-05-18T16:33:51.663Z,22.77
2019-05-18T16:38:57.025Z,23.85
2019-05-18T16:44:02.942Z,23.94
2019-05-18T16:49:08.457Z,23.07
2019-05-18T16:54:14.621Z,22.43
2019-05-18T16:59:19.915Z,23.38
2019-05-18T17:04:25.258Z,22.90
2019-05-18T17:09:30.483Z,22.56
2019-05-18T17:14:36.174Z,21.27
2019-05-18T17:19:41.546Z,20.00
2019-05-18T17:24:47.009Z,19.09
2019-05-18T17:29:52.212Z,18.66
2019-05-18T17:34:57.722Z,17.64
2019-05-18T17:40:03.197Z,17.11
2019-05-18T17:45:09.269Z,16.64
2019-05-18T17:50:15.975Z,16.71
2019-05-18T17:55:21.283Z,16.39
2019-05-18T18:00:26.778Z,16.46
2019-05-18T18:05:32.415Z,16.30
2019-05-18T18:10:38.100Z,16.08
2019-05-18T18:15:43.613Z,16.10
2019-05-18T18:20:49.166Z,15.82
2019-05-18T18:25:54.584Z,16.01
2019-05-18T18:30:59.944Z,15.62
2019-05-18T18:36:05.498Z,15.70
2019-05-18T18:41:11.089Z,15.76
2019-05-18T18:46:16.629Z,15.75
2019-05-18T18:51:21.952Z,15.87
2019-05-18T18:56:27.560Z,15.61
2019-05-18T19:01:32.701Z,15.46
2019-05-18T19:06:37.956Z,15.68
2019-05-18T19:11:43.142Z,15.41
2019-05-18T19:16:48.395Z,15.46
2019-05-18T19:21:53.512Z,15.30
2019-05-18T19:26:58.815Z,15.31
2019-05-18T19:32:04.045Z,15.31
2019-05-18T19:37:09.326Z,15.22
2019-05-18T19:42:14.620Z,15.25
2019-05-18T19:47:19.874Z,15.26
2019-05-18T19:52:25.104Z,15.25
2019-05-18T19:57:30.324Z,15.00
2019-05-18T20:02:35.605Z,15.08
2019-05-18T20:07:40.831Z,15.01
2019-05-18T20:12:46.185Z,15.00
2019-05-18T20:17:51.411Z,14.95
2019-05-18T20:22:56.779Z,14.95
2019-05-18T20:28:02.115Z,15.05
2019-05-18T20:33:07.479Z,15.01
2019-05-18T20:38:12.982Z,14.91
2019-05-18T20:43:18.226Z,14.85
2019-05-18T20:48:23.629Z,14.61
2019-05-18T20:53:29.059Z,14.79
2019-05-18T20:58:40.155Z,14.74
2019-05-18T21:03:41.568Z,14.72
2019-05-18T21:08:47.084Z,14.53
2019-05-18T21:13:52.556Z,14.65
2019-05-18T21:18:57.814Z,14.58
2019-05-18T21:24:03.291Z,14.56
2019-05-18T21:29:08.832Z,14.45
2019-05-18T21:34:14.073Z,14.30
2019-05-18T21:39:19.388Z,14.33
2019-05-18T21:44:24.914Z,14.34
2019-05-18T21:49:30.265Z,14.45
2019-05-18T21:54:36.864Z,14.47
2019-05-18T21:59:42.444Z,14.39
2019-05-18T22:04:47.880Z,14.36
2019-05-18T22:09:53.877Z,14.31
2019-05-18T22:14:59.520Z,14.19
2019-05-18T22:20:06.209Z,14.27
2019-05-18T22:25:11.568Z,14.24
2019-05-18T22:30:16.825Z,14.08
2019-05-18T22:35:22.154Z,14.08
2019-05-18T22:40:27.498Z,14.22
2019-05-18T22:45:32.895Z,14.18
2019-05-18T22:50:38.369Z,13.95
2019-05-18T22:55:43.846Z,13.90
2019-05-18T23:00:49.287Z,13.86
2019-05-18T23:05:54.730Z,13.88
2019-05-18T23:11:01.267Z,13.96
2019-05-18T23:16:06.647Z,13.91
2019-05-18T23:21:12.142Z,13.79
2019-05-18T23:26:17.610Z,13.83
2019-05-18T23:31:22.864Z,13.83
2019-05-18T23:36:28.220Z,13.83
2019-05-18T23:41:33.675Z,13.86
2019-05-18T23:46:39.043Z,13.74
2019-05-18T23:51:44.191Z,13.72
2019-05-18T23:56:49.655Z,13.77
